sensor_id;sensor_type;location;lat;lon;timestamp;P1;durP1;ratioP1;P2;durP2;ratioP2
59512;SDS011;45330;51.634;5.562;2022-07-29T00:00:28;8.55;;;2.20;;
59512;SDS011;45330;51.634;5.562;2022-07-29T00:02:53;6.07;;;2.20;;
59512;SDS011;45330;51.634;5.562;2022-07-29T00:05:20;5.82;;;2.10;;
59512;SDS011;45330;51.634;5.562;2022-07-29T00:07:45;7.95;;;2.30;;
59512;SDS011;45330;51.634;5.562;2022-07-29T00:10:10;7.03;;;2.35;;
59512;SDS011;45330;51.634;5.562;2022-07-29T00:12:36;8.55;;;2.30;;
59512;SDS011;45330;51.634;5.562;2022-07-29T00:15:02;6.80;;;2.20;;
59512;SDS011;45330;51.634;5.562;2022-07-29T00:17:28;6.78;;;2.40;;
59512;SDS011;45330;51.634;5.562;2022-07-29T00:19:53;12.63;;;2.50;;
59512;SDS011;45330;51.634;5.562;2022-07-29T00:22:19;8.13;;;2.10;;
59512;SDS011;45330;51.634;5.562;2022-07-29T00:24:44;12.35;;;2.50;;
59512;SDS011;45330;51.634;5.562;2022-07-29T00:27:11;8.07;;;2.15;;
59512;SDS011;45330;51.634;5.562;2022-07-29T00:29:36;6.97;;;2.13;;
59512;SDS011;45330;51.634;5.562;2022-07-29T00:32:02;8.60;;;2.10;;
59512;SDS011;45330;51.634;5.562;2022-07-29T00:34:27;9.75;;;2.30;;
59512;SDS011;45330;51.634;5.562;2022-07-29T00:37:11;9.43;;;2.30;;
59512;SDS011;45330;51.634;5.562;2022-07-29T00:39:36;7.30;;;2.35;;
59512;SDS011;45330;51.634;5.562;2022-07-29T00:42:03;8.63;;;2.30;;
59512;SDS011;45330;51.634;5.562;2022-07-29T00:44:29;5.70;;;2.20;;
59512;SDS011;45330;51.634;5.562;2022-07-29T00:46:54;7.22;;;2.17;;
59512;SDS011;45330;51.634;5.562;2022-07-29T00:49:20;6.85;;;2.45;;
59512;SDS011;45330;51.634;5.562;2022-07-29T00:51:45;9.95;;;2.53;;
59512;SDS011;45330;51.634;5.562;2022-07-29T00:54:11;8.43;;;2.28;;
59512;SDS011;45330;51.634;5.562;2022-07-29T00:56:37;11.43;;;2.40;;
59512;SDS011;45330;51.634;5.562;2022-07-29T00:59:02;7.50;;;2.33;;
59512;SDS011;45330;51.634;5.562;2022-07-29T01:01:28;4.90;;;2.08;;
59512;SDS011;45330;51.634;5.562;2022-07-29T01:03:53;8.15;;;2.30;;
59512;SDS011;45330;51.634;5.562;2022-07-29T01:06:19;6.88;;;2.30;;
59512;SDS011;45330;51.634;5.562;2022-07-29T01:08:45;7.22;;;2.28;;
59512;SDS011;45330;51.634;5.562;2022-07-29T01:11:12;9.13;;;2.10;;
59512;SDS011;45330;51.634;5.562;2022-07-29T01:13:40;7.10;;;2.30;;
59512;SDS011;45330;51.634;5.562;2022-07-29T01:16:07;7.75;;;2.20;;
59512;SDS011;45330;51.634;5.562;2022-07-29T01:18:39;5.38;;;2.08;;
59512;SDS011;45330;51.634;5.562;2022-07-29T01:29:27;7.28;;;2.22;;
59512;SDS011;45330;51.634;5.562;2022-07-29T01:37:19;9.30;;;2.38;;
59512;SDS011;45330;51.634;5.562;2022-07-29T01:39:47;5.50;;;2.20;;
59512;SDS011;45330;51.634;5.562;2022-07-29T01:47:32;6.80;;;2.78;;
59512;SDS011;45330;51.634;5.562;2022-07-29T01:50:02;10.20;;;3.00;;
59512;SDS011;45330;51.634;5.562;2022-07-29T01:52:46;7.90;;;3.20;;
59512;SDS011;45330;51.634;5.562;2022-07-29T01:55:17;8.05;;;3.20;;
59512;SDS011;45330;51.634;5.562;2022-07-29T01:57:47;13.35;;;3.33;;
59512;SDS011;45330;51.634;5.562;2022-07-29T02:00:14;10.45;;;3.35;;
59512;SDS011;45330;51.634;5.562;2022-07-29T02:02:41;12.82;;;3.47;;
59512;SDS011;45330;51.634;5.562;2022-07-29T02:05:10;14.13;;;3.60;;
59512;SDS011;45330;51.634;5.562;2022-07-29T02:07:37;11.80;;;3.60;;
59512;SDS011;45330;51.634;5.562;2022-07-29T02:10:05;13.98;;;3.60;;
59512;SDS011;45330;51.634;5.562;2022-07-29T02:12:32;11.23;;;3.70;;
59512;SDS011;45330;51.634;5.562;2022-07-29T02:14:59;10.75;;;3.78;;
59512;SDS011;45330;51.634;5.562;2022-07-29T02:17:27;11.90;;;3.55;;
59512;SDS011;45330;51.634;5.562;2022-07-29T02:22:25;11.70;;;3.70;;
59512;SDS011;45330;51.634;5.562;2022-07-29T02:24:54;11.10;;;3.92;;
59512;SDS011;45330;51.634;5.562;2022-07-29T02:27:21;13.32;;;3.90;;
59512;SDS011;45330;51.634;5.562;2022-07-29T02:29:48;10.57;;;4.18;;
59512;SDS011;45330;51.634;5.562;2022-07-29T02:32:16;14.60;;;4.20;;
59512;SDS011;45330;51.634;5.562;2022-07-29T02:34:43;10.98;;;3.67;;
59512;SDS011;45330;51.634;5.562;2022-07-29T02:37:10;14.27;;;4.03;;
59512;SDS011;45330;51.634;5.562;2022-07-29T02:39:36;6.22;;;3.50;;
59512;SDS011;45330;51.634;5.562;2022-07-29T02:42:05;12.77;;;4.10;;
59512;SDS011;45330;51.634;5.562;2022-07-29T02:44:34;10.40;;;3.63;;
59512;SDS011;45330;51.634;5.562;2022-07-29T02:49:40;10.07;;;3.90;;
59512;SDS011;45330;51.634;5.562;2022-07-29T02:52:34;10.63;;;3.90;;
59512;SDS011;45330;51.634;5.562;2022-07-29T02:55:10;9.23;;;3.53;;
59512;SDS011;45330;51.634;5.562;2022-07-29T02:57:49;10.50;;;3.72;;
59512;SDS011;45330;51.634;5.562;2022-07-29T03:00:20;12.30;;;4.35;;
59512;SDS011;45330;51.634;5.562;2022-07-29T03:02:46;10.77;;;4.22;;
59512;SDS011;45330;51.634;5.562;2022-07-29T03:05:17;12.48;;;3.88;;
59512;SDS011;45330;51.634;5.562;2022-07-29T03:07:52;12.85;;;3.95;;
59512;SDS011;45330;51.634;5.562;2022-07-29T03:10:21;10.23;;;3.80;;
59512;SDS011;45330;51.634;5.562;2022-07-29T03:12:47;12.38;;;3.80;;
59512;SDS011;45330;51.634;5.562;2022-07-29T03:15:13;12.13;;;4.40;;
59512;SDS011;45330;51.634;5.562;2022-07-29T03:17:39;9.88;;;3.67;;
59512;SDS011;45330;51.634;5.562;2022-07-29T03:20:07;12.18;;;3.85;;
59512;SDS011;45330;51.634;5.562;2022-07-29T03:22:33;11.95;;;4.30;;
59512;SDS011;45330;51.634;5.562;2022-07-29T03:25:08;11.20;;;4.22;;
59512;SDS011;45330;51.634;5.562;2022-07-29T03:27:37;7.32;;;3.60;;
59512;SDS011;45330;51.634;5.562;2022-07-29T03:30:03;10.68;;;3.70;;
59512;SDS011;45330;51.634;5.562;2022-07-29T03:32:29;11.35;;;3.97;;
59512;SDS011;45330;51.634;5.562;2022-07-29T03:34:54;13.75;;;4.03;;
59512;SDS011;45330;51.634;5.562;2022-07-29T03:37:20;9.68;;;4.15;;
59512;SDS011;45330;51.634;5.562;2022-07-29T03:39:45;13.05;;;4.18;;
59512;SDS011;45330;51.634;5.562;2022-07-29T03:42:13;12.18;;;3.70;;
59512;SDS011;45330;51.634;5.562;2022-07-29T03:44:41;11.48;;;3.83;;
59512;SDS011;45330;51.634;5.562;2022-07-29T03:47:09;11.23;;;3.85;;
59512;SDS011;45330;51.634;5.562;2022-07-29T03:49:36;11.98;;;3.67;;
59512;SDS011;45330;51.634;5.562;2022-07-29T03:52:04;8.10;;;3.58;;
59512;SDS011;45330;51.634;5.562;2022-07-29T03:54:30;10.52;;;3.38;;
59512;SDS011;45330;51.634;5.562;2022-07-29T03:56:55;10.55;;;3.75;;
59512;SDS011;45330;51.634;5.562;2022-07-29T03:59:26;15.50;;;4.05;;
59512;SDS011;45330;51.634;5.562;2022-07-29T04:01:52;11.45;;;4.10;;
59512;SDS011;45330;51.634;5.562;2022-07-29T04:04:19;12.68;;;4.10;;
59512;SDS011;45330;51.634;5.562;2022-07-29T04:06:45;11.38;;;3.97;;
59512;SDS011;45330;51.634;5.562;2022-07-29T04:09:11;10.82;;;4.13;;
59512;SDS011;45330;51.634;5.562;2022-07-29T04:11:40;9.23;;;4.00;;
59512;SDS011;45330;51.634;5.562;2022-07-29T04:14:06;10.15;;;4.50;;
59512;SDS011;45330;51.634;5.562;2022-07-29T04:16:32;10.85;;;4.20;;
59512;SDS011;45330;51.634;5.562;2022-07-29T04:18:57;8.65;;;3.85;;
59512;SDS011;45330;51.634;5.562;2022-07-29T04:21:23;11.68;;;4.10;;
59512;SDS011;45330;51.634;5.562;2022-07-29T04:23:49;12.82;;;4.30;;
59512;SDS011;45330;51.634;5.562;2022-07-29T04:26:15;11.25;;;4.30;;
59512;SDS011;45330;51.634;5.562;2022-07-29T04:28:41;11.90;;;4.32;;
59512;SDS011;45330;51.634;5.562;2022-07-29T04:31:07;14.13;;;4.35;;
59512;SDS011;45330;51.634;5.562;2022-07-29T04:33:33;15.05;;;4.28;;
59512;SDS011;45330;51.634;5.562;2022-07-29T04:35:59;15.32;;;4.53;;
59512;SDS011;45330;51.634;5.562;2022-07-29T04:38:24;13.38;;;4.45;;
59512;SDS011;45330;51.634;5.562;2022-07-29T04:40:49;13.63;;;4.43;;
59512;SDS011;45330;51.634;5.562;2022-07-29T04:43:15;13.88;;;4.85;;
59512;SDS011;45330;51.634;5.562;2022-07-29T04:45:40;13.88;;;5.22;;
59512;SDS011;45330;51.634;5.562;2022-07-29T04:48:06;13.27;;;4.70;;
59512;SDS011;45330;51.634;5.562;2022-07-29T04:50:31;13.63;;;5.15;;
59512;SDS011;45330;51.634;5.562;2022-07-29T04:52:57;18.55;;;5.07;;
59512;SDS011;45330;51.634;5.562;2022-07-29T04:55:23;12.88;;;4.63;;
59512;SDS011;45330;51.634;5.562;2022-07-29T04:57:48;14.45;;;4.75;;
59512;SDS011;45330;51.634;5.562;2022-07-29T05:00:13;11.15;;;4.70;;
59512;SDS011;45330;51.634;5.562;2022-07-29T05:02:39;15.68;;;4.95;;
59512;SDS011;45330;51.634;5.562;2022-07-29T05:05:05;13.55;;;4.90;;
59512;SDS011;45330;51.634;5.562;2022-07-29T05:07:30;15.25;;;5.22;;
59512;SDS011;45330;51.634;5.562;2022-07-29T05:09:56;10.70;;;4.82;;
59512;SDS011;45330;51.634;5.562;2022-07-29T05:12:22;12.02;;;4.95;;
59512;SDS011;45330;51.634;5.562;2022-07-29T05:14:48;11.90;;;5.05;;
59512;SDS011;45330;51.634;5.562;2022-07-29T05:17:13;11.55;;;4.68;;
59512;SDS011;45330;51.634;5.562;2022-07-29T05:19:39;14.20;;;4.85;;
59512;SDS011;45330;51.634;5.562;2022-07-29T05:22:04;13.52;;;5.30;;
59512;SDS011;45330;51.634;5.562;2022-07-29T05:24:30;15.05;;;5.55;;
59512;SDS011;45330;51.634;5.562;2022-07-29T05:26:55;12.48;;;5.78;;
59512;SDS011;45330;51.634;5.562;2022-07-29T05:29:21;13.60;;;4.90;;
59512;SDS011;45330;51.634;5.562;2022-07-29T05:31:46;14.75;;;5.22;;
59512;SDS011;45330;51.634;5.562;2022-07-29T05:34:12;14.98;;;5.10;;
59512;SDS011;45330;51.634;5.562;2022-07-29T05:36:37;14.68;;;5.18;;
59512;SDS011;45330;51.634;5.562;2022-07-29T05:39:02;13.75;;;5.60;;
59512;SDS011;45330;51.634;5.562;2022-07-29T05:41:31;15.02;;;5.15;;
59512;SDS011;45330;51.634;5.562;2022-07-29T05:43:56;12.85;;;5.32;;
59512;SDS011;45330;51.634;5.562;2022-07-29T05:46:23;14.18;;;5.35;;
59512;SDS011;45330;51.634;5.562;2022-07-29T05:48:48;14.35;;;5.25;;
59512;SDS011;45330;51.634;5.562;2022-07-29T05:51:14;16.73;;;5.32;;
59512;SDS011;45330;51.634;5.562;2022-07-29T05:53:39;12.70;;;5.10;;
59512;SDS011;45330;51.634;5.562;2022-07-29T05:56:05;12.30;;;4.88;;
59512;SDS011;45330;51.634;5.562;2022-07-29T05:58:31;15.77;;;6.10;;
59512;SDS011;45330;51.634;5.562;2022-07-29T06:00:56;14.88;;;5.15;;
59512;SDS011;45330;51.634;5.562;2022-07-29T06:03:24;16.77;;;5.43;;
59512;SDS011;45330;51.634;5.562;2022-07-29T06:05:50;14.85;;;5.38;;
59512;SDS011;45330;51.634;5.562;2022-07-29T06:08:15;14.68;;;5.40;;
59512;SDS011;45330;51.634;5.562;2022-07-29T06:10:42;13.77;;;5.32;;
59512;SDS011;45330;51.634;5.562;2022-07-29T06:13:07;20.95;;;6.22;;
59512;SDS011;45330;51.634;5.562;2022-07-29T06:15:33;14.02;;;5.55;;
59512;SDS011;45330;51.634;5.562;2022-07-29T06:17:58;17.98;;;5.65;;
59512;SDS011;45330;51.634;5.562;2022-07-29T06:20:23;12.13;;;5.00;;
59512;SDS011;45330;51.634;5.562;2022-07-29T06:22:49;14.23;;;5.32;;
59512;SDS011;45330;51.634;5.562;2022-07-29T06:25:14;15.98;;;5.25;;
59512;SDS011;45330;51.634;5.562;2022-07-29T06:27:39;14.80;;;5.28;;
59512;SDS011;45330;51.634;5.562;2022-07-29T06:30:05;15.60;;;4.82;;
59512;SDS011;45330;51.634;5.562;2022-07-29T06:32:32;14.10;;;5.20;;
59512;SDS011;45330;51.634;5.562;2022-07-29T06:34:58;16.73;;;5.00;;
59512;SDS011;45330;51.634;5.562;2022-07-29T06:37:23;12.68;;;5.25;;
59512;SDS011;45330;51.634;5.562;2022-07-29T06:39:49;13.48;;;4.65;;
59512;SDS011;45330;51.634;5.562;2022-07-29T06:42:34;13.73;;;5.00;;
59512;SDS011;45330;51.634;5.562;2022-07-29T06:44:59;13.05;;;4.97;;
59512;SDS011;45330;51.634;5.562;2022-07-29T06:47:25;11.70;;;5.20;;
59512;SDS011;45330;51.634;5.562;2022-07-29T06:49:50;15.18;;;5.57;;
59512;SDS011;45330;51.634;5.562;2022-07-29T06:52:15;15.98;;;5.00;;
59512;SDS011;45330;51.634;5.562;2022-07-29T06:54:41;13.43;;;5.30;;
59512;SDS011;45330;51.634;5.562;2022-07-29T06:57:12;13.57;;;5.00;;
59512;SDS011;45330;51.634;5.562;2022-07-29T06:59:38;12.45;;;5.22;;
59512;SDS011;45330;51.634;5.562;2022-07-29T07:02:03;13.63;;;5.22;;
59512;SDS011;45330;51.634;5.562;2022-07-29T07:04:29;13.38;;;4.82;;
59512;SDS011;45330;51.634;5.562;2022-07-29T07:06:54;11.82;;;4.55;;
59512;SDS011;45330;51.634;5.562;2022-07-29T07:09:20;11.25;;;4.70;;
59512;SDS011;45330;51.634;5.562;2022-07-29T07:11:46;15.52;;;5.03;;
59512;SDS011;45330;51.634;5.562;2022-07-29T07:14:11;12.25;;;4.45;;
59512;SDS011;45330;51.634;5.562;2022-07-29T07:16:36;12.55;;;4.38;;
59512;SDS011;45330;51.634;5.562;2022-07-29T07:19:02;13.88;;;4.85;;
59512;SDS011;45330;51.634;5.562;2022-07-29T07:21:27;12.38;;;4.80;;
59512;SDS011;45330;51.634;5.562;2022-07-29T07:23:53;14.65;;;5.30;;
59512;SDS011;45330;51.634;5.562;2022-07-29T07:26:19;13.65;;;5.32;;
59512;SDS011;45330;51.634;5.562;2022-07-29T07:28:44;14.23;;;5.55;;
59512;SDS011;45330;51.634;5.562;2022-07-29T07:31:10;12.60;;;5.07;;
59512;SDS011;45330;51.634;5.562;2022-07-29T07:33:36;12.55;;;5.10;;
59512;SDS011;45330;51.634;5.562;2022-07-29T07:36:01;14.45;;;5.00;;
59512;SDS011;45330;51.634;5.562;2022-07-29T07:38:27;11.40;;;4.80;;
59512;SDS011;45330;51.634;5.562;2022-07-29T07:40:52;14.55;;;4.95;;
59512;SDS011;45330;51.634;5.562;2022-07-29T07:43:18;13.00;;;4.90;;
59512;SDS011;45330;51.634;5.562;2022-07-29T07:45:43;13.65;;;4.80;;
59512;SDS011;45330;51.634;5.562;2022-07-29T07:48:08;14.15;;;5.13;;
59512;SDS011;45330;51.634;5.562;2022-07-29T07:50:35;13.00;;;4.85;;
59512;SDS011;45330;51.634;5.562;2022-07-29T07:53:01;12.82;;;5.10;;
59512;SDS011;45330;51.634;5.562;2022-07-29T07:55:27;11.50;;;4.90;;
59512;SDS011;45330;51.634;5.562;2022-07-29T07:57:53;12.43;;;5.38;;
59512;SDS011;45330;51.634;5.562;2022-07-29T08:00:19;12.20;;;5.40;;
59512;SDS011;45330;51.634;5.562;2022-07-29T08:02:45;16.38;;;5.35;;
59512;SDS011;45330;51.634;5.562;2022-07-29T08:05:10;16.05;;;5.45;;
59512;SDS011;45330;51.634;5.562;2022-07-29T08:07:38;11.10;;;5.05;;
59512;SDS011;45330;51.634;5.562;2022-07-29T08:10:04;13.45;;;5.80;;
59512;SDS011;45330;51.634;5.562;2022-07-29T08:12:29;15.23;;;5.60;;
59512;SDS011;45330;51.634;5.562;2022-07-29T08:14:55;14.32;;;5.22;;
59512;SDS011;45330;51.634;5.562;2022-07-29T08:17:20;12.88;;;5.25;;
59512;SDS011;45330;51.634;5.562;2022-07-29T08:19:45;12.02;;;5.28;;
59512;SDS011;45330;51.634;5.562;2022-07-29T08:22:13;14.48;;;5.40;;
59512;SDS011;45330;51.634;5.562;2022-07-29T08:24:39;12.88;;;5.22;;
59512;SDS011;45330;51.634;5.562;2022-07-29T08:27:20;13.00;;;5.25;;
59512;SDS011;45330;51.634;5.562;2022-07-29T08:29:46;15.27;;;5.00;;
59512;SDS011;45330;51.634;5.562;2022-07-29T08:32:12;14.02;;;5.47;;
59512;SDS011;45330;51.634;5.562;2022-07-29T08:34:38;16.90;;;5.05;;
59512;SDS011;45330;51.634;5.562;2022-07-29T08:37:03;11.95;;;4.82;;
59512;SDS011;45330;51.634;5.562;2022-07-29T08:39:29;15.15;;;5.10;;
59512;SDS011;45330;51.634;5.562;2022-07-29T08:41:54;15.80;;;5.35;;
59512;SDS011;45330;51.634;5.562;2022-07-29T08:44:20;14.75;;;4.72;;
59512;SDS011;45330;51.634;5.562;2022-07-29T08:46:47;14.68;;;5.15;;
59512;SDS011;45330;51.634;5.562;2022-07-29T08:49:13;11.93;;;5.07;;
59512;SDS011;45330;51.634;5.562;2022-07-29T08:51:39;15.20;;;4.60;;
59512;SDS011;45330;51.634;5.562;2022-07-29T08:54:05;14.57;;;4.80;;
59512;SDS011;45330;51.634;5.562;2022-07-29T08:56:33;13.73;;;5.05;;
59512;SDS011;45330;51.634;5.562;2022-07-29T08:58:59;13.30;;;5.18;;
59512;SDS011;45330;51.634;5.562;2022-07-29T09:01:29;11.83;;;5.10;;
59512;SDS011;45330;51.634;5.562;2022-07-29T09:03:58;11.02;;;4.50;;
59512;SDS011;45330;51.634;5.562;2022-07-29T09:06:26;12.75;;;4.53;;
59512;SDS011;45330;51.634;5.562;2022-07-29T09:08:58;10.88;;;4.20;;
59512;SDS011;45330;51.634;5.562;2022-07-29T09:11:24;12.73;;;4.45;;
59512;SDS011;45330;51.634;5.562;2022-07-29T09:13:50;13.40;;;4.35;;
59512;SDS011;45330;51.634;5.562;2022-07-29T09:16:16;11.45;;;4.32;;
59512;SDS011;45330;51.634;5.562;2022-07-29T09:18:42;12.65;;;4.57;;
59512;SDS011;45330;51.634;5.562;2022-07-29T09:21:12;15.35;;;4.88;;
59512;SDS011;45330;51.634;5.562;2022-07-29T09:23:59;14.25;;;5.30;;
59512;SDS011;45330;51.634;5.562;2022-07-29T09:26:29;13.80;;;4.88;;
59512;SDS011;45330;51.634;5.562;2022-07-29T09:28:56;12.88;;;5.20;;
59512;SDS011;45330;51.634;5.562;2022-07-29T09:31:32;13.57;;;4.75;;
59512;SDS011;45330;51.634;5.562;2022-07-29T09:33:59;11.35;;;4.85;;
59512;SDS011;45330;51.634;5.562;2022-07-29T09:36:25;12.82;;;5.72;;
59512;SDS011;45330;51.634;5.562;2022-07-29T09:38:57;16.55;;;5.93;;
59512;SDS011;45330;51.634;5.562;2022-07-29T09:41:24;16.15;;;5.85;;
59512;SDS011;45330;51.634;5.562;2022-07-29T09:43:54;18.92;;;6.28;;
59512;SDS011;45330;51.634;5.562;2022-07-29T09:46:23;17.08;;;6.00;;
59512;SDS011;45330;51.634;5.562;2022-07-29T09:51:34;15.43;;;5.43;;
59512;SDS011;45330;51.634;5.562;2022-07-29T09:54:00;13.02;;;5.00;;
59512;SDS011;45330;51.634;5.562;2022-07-29T09:56:40;15.20;;;5.22;;
59512;SDS011;45330;51.634;5.562;2022-07-29T09:59:07;10.98;;;4.95;;
59512;SDS011;45330;51.634;5.562;2022-07-29T10:01:34;15.48;;;4.90;;
59512;SDS011;45330;51.634;5.562;2022-07-29T10:04:01;13.45;;;4.05;;
59512;SDS011;45330;51.634;5.562;2022-07-29T10:06:26;12.32;;;4.00;;
59512;SDS011;45330;51.634;5.562;2022-07-29T10:08:52;12.60;;;4.85;;
59512;SDS011;45330;51.634;5.562;2022-07-29T10:11:18;11.85;;;4.60;;
59512;SDS011;45330;51.634;5.562;2022-07-29T10:13:45;11.43;;;4.50;;
59512;SDS011;45330;51.634;5.562;2022-07-29T10:16:11;13.45;;;4.78;;
59512;SDS011;45330;51.634;5.562;2022-07-29T10:18:39;15.68;;;4.95;;
59512;SDS011;45330;51.634;5.562;2022-07-29T10:21:08;13.10;;;5.00;;
59512;SDS011;45330;51.634;5.562;2022-07-29T10:23:35;18.65;;;5.50;;
59512;SDS011;45330;51.634;5.562;2022-07-29T10:26:02;12.73;;;5.22;;
59512;SDS011;45330;51.634;5.562;2022-07-29T10:28:29;13.25;;;5.28;;
59512;SDS011;45330;51.634;5.562;2022-07-29T10:30:59;14.68;;;5.05;;
59512;SDS011;45330;51.634;5.562;2022-07-29T10:39:18;11.80;;;4.35;;
59512;SDS011;45330;51.634;5.562;2022-07-29T10:42:20;13.90;;;4.28;;
59512;SDS011;45330;51.634;5.562;2022-07-29T10:44:49;10.38;;;4.20;;
59512;SDS011;45330;51.634;5.562;2022-07-29T10:47:22;12.23;;;4.28;;
59512;SDS011;45330;51.634;5.562;2022-07-29T10:49:55;12.00;;;4.47;;
59512;SDS011;45330;51.634;5.562;2022-07-29T10:52:22;10.75;;;4.38;;
59512;SDS011;45330;51.634;5.562;2022-07-29T10:54:49;14.68;;;5.18;;
59512;SDS011;45330;51.634;5.562;2022-07-29T10:57:25;11.05;;;4.60;;
59512;SDS011;45330;51.634;5.562;2022-07-29T11:05:02;10.88;;;3.70;;
59512;SDS011;45330;51.634;5.562;2022-07-29T11:07:28;13.55;;;4.03;;
59512;SDS011;45330;51.634;5.562;2022-07-29T11:18:16;8.48;;;3.22;;
59512;SDS011;45330;51.634;5.562;2022-07-29T11:31:38;10.65;;;3.72;;
59512;SDS011;45330;51.634;5.562;2022-07-29T11:34:27;9.48;;;3.50;;
59512;SDS011;45330;51.634;5.562;2022-07-29T11:39:38;13.52;;;4.30;;
59512;SDS011;45330;51.634;5.562;2022-07-29T11:44:54;14.27;;;4.28;;
59512;SDS011;45330;51.634;5.562;2022-07-29T11:47:24;14.43;;;3.97;;
59512;SDS011;45330;51.634;5.562;2022-07-29T11:49:52;11.70;;;3.95;;
59512;SDS011;45330;51.634;5.562;2022-07-29T11:52:19;12.27;;;4.20;;
59512;SDS011;45330;51.634;5.562;2022-07-29T11:54:47;10.73;;;4.07;;
59512;SDS011;45330;51.634;5.562;2022-07-29T11:57:13;9.35;;;3.80;;
59512;SDS011;45330;51.634;5.562;2022-07-29T11:59:42;11.48;;;3.75;;
59512;SDS011;45330;51.634;5.562;2022-07-29T12:02:09;13.55;;;3.92;;
59512;SDS011;45330;51.634;5.562;2022-07-29T12:04:47;11.63;;;3.88;;
59512;SDS011;45330;51.634;5.562;2022-07-29T12:07:31;9.75;;;3.92;;
59512;SDS011;45330;51.634;5.562;2022-07-29T12:09:57;11.85;;;3.65;;
59512;SDS011;45330;51.634;5.562;2022-07-29T12:12:23;10.00;;;3.38;;
59512;SDS011;45330;51.634;5.562;2022-07-29T12:14:49;10.48;;;3.35;;
59512;SDS011;45330;51.634;5.562;2022-07-29T12:17:28;13.85;;;3.58;;
59512;SDS011;45330;51.634;5.562;2022-07-29T12:19:58;10.90;;;3.30;;
59512;SDS011;45330;51.634;5.562;2022-07-29T12:22:25;9.90;;;3.60;;
59512;SDS011;45330;51.634;5.562;2022-07-29T12:24:51;11.65;;;3.97;;
59512;SDS011;45330;51.634;5.562;2022-07-29T12:27:16;12.60;;;3.92;;
59512;SDS011;45330;51.634;5.562;2022-07-29T12:29:43;10.80;;;3.60;;
59512;SDS011;45330;51.634;5.562;2022-07-29T12:32:08;13.65;;;4.18;;
59512;SDS011;45330;51.634;5.562;2022-07-29T12:34:34;13.00;;;3.58;;
59512;SDS011;45330;51.634;5.562;2022-07-29T12:36:59;9.43;;;3.40;;
59512;SDS011;45330;51.634;5.562;2022-07-29T12:39:26;12.38;;;3.83;;
59512;SDS011;45330;51.634;5.562;2022-07-29T12:41:52;11.75;;;3.85;;
59512;SDS011;45330;51.634;5.562;2022-07-29T12:44:18;13.65;;;3.40;;
59512;SDS011;45330;51.634;5.562;2022-07-29T12:46:43;10.30;;;3.30;;
59512;SDS011;45330;51.634;5.562;2022-07-29T12:49:11;11.45;;;3.22;;
59512;SDS011;45330;51.634;5.562;2022-07-29T12:51:46;11.65;;;2.90;;
59512;SDS011;45330;51.634;5.562;2022-07-29T12:54:12;12.98;;;2.97;;
59512;SDS011;45330;51.634;5.562;2022-07-29T12:56:40;13.30;;;3.00;;
59512;SDS011;45330;51.634;5.562;2022-07-29T12:59:12;6.75;;;2.50;;
59512;SDS011;45330;51.634;5.562;2022-07-29T13:01:43;9.05;;;2.83;;
59512;SDS011;45330;51.634;5.562;2022-07-29T13:04:09;9.55;;;2.80;;
59512;SDS011;45330;51.634;5.562;2022-07-29T13:06:36;9.70;;;3.20;;
59512;SDS011;45330;51.634;5.562;2022-07-29T13:09:12;7.57;;;2.50;;
59512;SDS011;45330;51.634;5.562;2022-07-29T13:14:10;10.30;;;2.80;;
59512;SDS011;45330;51.634;5.562;2022-07-29T13:17:01;7.40;;;2.95;;
59512;SDS011;45330;51.634;5.562;2022-07-29T13:19:40;7.85;;;3.05;;
59512;SDS011;45330;51.634;5.562;2022-07-29T13:22:13;11.02;;;3.30;;
59512;SDS011;45330;51.634;5.562;2022-07-29T13:27:19;11.10;;;2.88;;
59512;SDS011;45330;51.634;5.562;2022-07-29T13:29:46;10.40;;;2.97;;
59512;SDS011;45330;51.634;5.562;2022-07-29T13:32:12;8.90;;;2.90;;
59512;SDS011;45330;51.634;5.562;2022-07-29T13:34:38;13.13;;;3.10;;
59512;SDS011;45330;51.634;5.562;2022-07-29T13:37:04;11.55;;;2.72;;
59512;SDS011;45330;51.634;5.562;2022-07-29T13:39:29;9.55;;;3.15;;
59512;SDS011;45330;51.634;5.562;2022-07-29T13:41:55;10.63;;;3.08;;
59512;SDS011;45330;51.634;5.562;2022-07-29T13:44:20;10.45;;;3.00;;
59512;SDS011;45330;51.634;5.562;2022-07-29T13:46:46;7.93;;;3.13;;
59512;SDS011;45330;51.634;5.562;2022-07-29T13:49:11;6.70;;;2.60;;
59512;SDS011;45330;51.634;5.562;2022-07-29T13:51:37;12.30;;;3.10;;
59512;SDS011;45330;51.634;5.562;2022-07-29T13:54:03;9.90;;;2.65;;
59512;SDS011;45330;51.634;5.562;2022-07-29T13:56:29;7.85;;;2.63;;
59512;SDS011;45330;51.634;5.562;2022-07-29T13:58:54;7.65;;;2.30;;
59512;SDS011;45330;51.634;5.562;2022-07-29T14:01:20;3.80;;;2.15;;
59512;SDS011;45330;51.634;5.562;2022-07-29T14:03:46;8.95;;;2.53;;
59512;SDS011;45330;51.634;5.562;2022-07-29T14:06:11;5.75;;;2.35;;
59512;SDS011;45330;51.634;5.562;2022-07-29T14:08:36;7.32;;;2.40;;
59512;SDS011;45330;51.634;5.562;2022-07-29T14:11:02;7.82;;;2.50;;
59512;SDS011;45330;51.634;5.562;2022-07-29T14:13:28;8.50;;;2.67;;
59512;SDS011;45330;51.634;5.562;2022-07-29T14:15:53;9.25;;;3.00;;
59512;SDS011;45330;51.634;5.562;2022-07-29T14:18:18;9.02;;;3.05;;
59512;SDS011;45330;51.634;5.562;2022-07-29T14:20:44;8.82;;;3.15;;
59512;SDS011;45330;51.634;5.562;2022-07-29T14:23:09;7.43;;;3.10;;
59512;SDS011;45330;51.634;5.562;2022-07-29T14:25:35;8.35;;;3.13;;
59512;SDS011;45330;51.634;5.562;2022-07-29T14:28:00;8.93;;;3.00;;
59512;SDS011;45330;51.634;5.562;2022-07-29T14:30:26;9.13;;;3.00;;
59512;SDS011;45330;51.634;5.562;2022-07-29T14:32:51;9.82;;;3.05;;
59512;SDS011;45330;51.634;5.562;2022-07-29T14:35:17;10.18;;;2.97;;
59512;SDS011;45330;51.634;5.562;2022-07-29T14:37:42;10.00;;;3.10;;
59512;SDS011;45330;51.634;5.562;2022-07-29T14:40:08;9.68;;;2.90;;
59512;SDS011;45330;51.634;5.562;2022-07-29T14:42:34;7.88;;;2.80;;
59512;SDS011;45330;51.634;5.562;2022-07-29T14:45:01;13.23;;;3.25;;
59512;SDS011;45330;51.634;5.562;2022-07-29T14:47:26;8.18;;;3.30;;
59512;SDS011;45330;51.634;5.562;2022-07-29T14:49:52;7.25;;;2.85;;
59512;SDS011;45330;51.634;5.562;2022-07-29T14:52:17;9.77;;;3.00;;
59512;SDS011;45330;51.634;5.562;2022-07-29T14:54:42;7.22;;;2.80;;
59512;SDS011;45330;51.634;5.562;2022-07-29T14:57:08;10.40;;;3.25;;
59512;SDS011;45330;51.634;5.562;2022-07-29T14:59:33;7.47;;;2.67;;
59512;SDS011;45330;51.634;5.562;2022-07-29T15:01:59;6.05;;;2.78;;
59512;SDS011;45330;51.634;5.562;2022-07-29T15:04:24;8.50;;;2.67;;
59512;SDS011;45330;51.634;5.562;2022-07-29T15:06:50;10.00;;;2.80;;
59512;SDS011;45330;51.634;5.562;2022-07-29T15:09:16;10.82;;;3.05;;
59512;SDS011;45330;51.634;5.562;2022-07-29T15:11:42;8.60;;;3.05;;
59512;SDS011;45330;51.634;5.562;2022-07-29T15:14:08;10.90;;;3.05;;
59512;SDS011;45330;51.634;5.562;2022-07-29T15:16:37;7.65;;;2.70;;
59512;SDS011;45330;51.634;5.562;2022-07-29T15:19:03;9.07;;;2.47;;
59512;SDS011;45330;51.634;5.562;2022-07-29T15:21:29;8.52;;;2.60;;
59512;SDS011;45330;51.634;5.562;2022-07-29T15:23:54;7.45;;;2.63;;
59512;SDS011;45330;51.634;5.562;2022-07-29T15:26:20;8.13;;;2.58;;
59512;SDS011;45330;51.634;5.562;2022-07-29T15:28:45;9.65;;;2.60;;
59512;SDS011;45330;51.634;5.562;2022-07-29T15:31:11;7.63;;;3.00;;
59512;SDS011;45330;51.634;5.562;2022-07-29T15:33:37;8.40;;;2.72;;
59512;SDS011;45330;51.634;5.562;2022-07-29T15:36:02;8.68;;;3.00;;
59512;SDS011;45330;51.634;5.562;2022-07-29T15:38:29;10.98;;;3.28;;
59512;SDS011;45330;51.634;5.562;2022-07-29T15:40:55;9.98;;;2.97;;
59512;SDS011;45330;51.634;5.562;2022-07-29T15:43:20;11.52;;;3.08;;
59512;SDS011;45330;51.634;5.562;2022-07-29T15:45:46;14.50;;;3.05;;